createdAt,value
2023-05-15T00:00:51.365Z,17.67
2023-05-15T00:03:18.541Z,16.87
2023-05-15T00:05:45.497Z,16.87
2023-05-15T00:08:12.355Z,17.83
2023-05-15T00:10:41.037Z,18.13
2023-05-15T00:13:11.830Z,19.37
2023-05-15T00:15:38.729Z,17.77
2023-05-15T00:18:05.815Z,18.00
2023-05-15T00:20:32.598Z,18.27
2023-05-15T00:22:59.486Z,17.83
2023-05-15T00:25:26.550Z,18.83
2023-05-15T00:27:53.663Z,18.50
2023-05-15T00:30:20.490Z,17.57
2023-05-15T00:32:47.390Z,18.13
2023-05-15T00:35:14.234Z,17.30
2023-05-15T00:37:41.064Z,17.47
2023-05-15T00:40:10.697Z,17.50
2023-05-15T00:42:38.055Z,16.80
2023-05-15T00:45:07.924Z,17.80
2023-05-15T00:47:35.451Z,17.83
2023-05-15T00:50:03.117Z,17.67
2023-05-15T00:52:30.157Z,17.60
2023-05-15T00:54:57.014Z,18.03
2023-05-15T00:57:25.453Z,17.73
2023-05-15T00:59:53.107Z,18.23
2023-05-15T01:02:20.225Z,18.43
2023-05-15T01:04:47.239Z,18.13
2023-05-15T01:07:14.145Z,19.63
2023-05-15T01:09:44.591Z,17.80
2023-05-15T01:12:14.722Z,18.17
2023-05-15T01:14:41.630Z,19.60
2023-05-15T01:17:08.720Z,19.27
2023-05-15T01:19:36.700Z,20.30
2023-05-15T01:22:18.663Z,20.43
2023-05-15T01:24:48.678Z,19.63
2023-05-15T01:27:35.788Z,19.83
2023-05-15T01:30:17.360Z,18.80
2023-05-15T01:32:50.435Z,20.30
2023-05-15T01:35:26.006Z,19.57
2023-05-15T01:38:04.818Z,19.17
2023-05-15T01:40:31.665Z,19.70
2023-05-15T01:43:06.095Z,20.20
2023-05-15T01:45:34.174Z,19.70
2023-05-15T01:48:02.094Z,20.10
2023-05-15T01:50:32.691Z,19.97
2023-05-15T01:53:02.627Z,20.93
2023-05-15T01:55:30.576Z,19.73
2023-05-15T01:58:01.526Z,20.20
2023-05-15T02:00:29.713Z,20.33
2023-05-15T02:02:57.819Z,23.03
2023-05-15T02:05:27.070Z,21.23
2023-05-15T02:07:54.862Z,20.87
2023-05-15T02:10:22.989Z,21.37
2023-05-15T02:12:50.471Z,23.07
2023-05-15T02:15:18.256Z,21.07
2023-05-15T02:17:45.425Z,21.67
2023-05-15T02:20:12.669Z,21.77
2023-05-15T02:22:39.585Z,22.47
2023-05-15T02:25:06.575Z,22.97
2023-05-15T02:28:04.590Z,23.10
2023-05-15T02:30:40.626Z,22.57
2023-05-15T02:33:31.932Z,22.50
2023-05-15T02:36:11.358Z,23.23
2023-05-15T02:38:46.817Z,23.60
2023-05-15T02:41:14.938Z,24.10
2023-05-15T02:43:42.694Z,23.20
2023-05-15T02:46:10.714Z,23.43
2023-05-15T02:48:42.161Z,22.60
2023-05-15T02:51:09.333Z,24.30
2023-05-15T02:53:42.848Z,23.17
2023-05-15T02:56:09.992Z,22.87
2023-05-15T02:58:38.072Z,23.80
2023-05-15T03:01:05.096Z,24.43
2023-05-15T03:03:32.084Z,22.93
2023-05-15T03:06:00.958Z,23.57
2023-05-15T03:08:27.965Z,23.70
2023-05-15T03:10:54.924Z,24.73
2023-05-15T03:13:21.946Z,24.10
2023-05-15T03:15:48.864Z,23.87
2023-05-15T03:18:18.554Z,22.87
2023-05-15T03:20:47.485Z,21.63
2023-05-15T03:23:14.340Z,23.43
2023-05-15T03:25:41.278Z,22.90
2023-05-15T03:28:08.049Z,21.20
2023-05-15T03:30:34.844Z,23.07
2023-05-15T03:33:04.114Z,22.23
2023-05-15T03:35:32.499Z,21.90
2023-05-15T03:37:59.356Z,21.63
2023-05-15T03:40:26.170Z,21.23
2023-05-15T03:42:53.602Z,21.13
2023-05-15T03:45:21.314Z,20.53
2023-05-15T03:47:48.619Z,21.83
2023-05-15T03:50:16.405Z,21.47
2023-05-15T03:52:43.377Z,20.07
2023-05-15T03:55:10.320Z,22.53
2023-05-15T03:57:37.280Z,22.43
2023-05-15T04:00:09.966Z,21.07
2023-05-15T04:02:37.797Z,21.57
2023-05-15T04:05:05.484Z,21.77
2023-05-15T04:07:34.211Z,22.43
2023-05-15T04:10:01.625Z,21.17
2023-05-15T04:12:34.173Z,21.60
2023-05-15T04:15:17.590Z,20.73
2023-05-15T04:17:46.412Z,20.40
2023-05-15T04:20:15.467Z,20.20
2023-05-15T04:22:43.019Z,18.90
2023-05-15T04:25:14.764Z,21.30
2023-05-15T04:27:42.332Z,20.77
2023-05-15T04:30:09.535Z,21.13
2023-05-15T04:32:37.546Z,20.23
2023-05-15T04:35:10.257Z,18.37
2023-05-15T04:37:38.348Z,19.17
2023-05-15T04:40:08.825Z,18.83
2023-05-15T04:42:38.512Z,18.97
2023-05-15T04:45:07.050Z,18.90
2023-05-15T04:47:34.195Z,18.90
2023-05-15T04:50:01.172Z,19.60
2023-05-15T04:52:28.003Z,19.57
2023-05-15T04:54:56.013Z,19.73
2023-05-15T04:57:23.377Z,19.87
2023-05-15T04:59:50.274Z,19.27
2023-05-15T05:02:22.540Z,19.97
2023-05-15T05:04:50.094Z,20.17
2023-05-15T05:07:17.233Z,20.03
2023-05-15T05:09:44.472Z,20.50
2023-05-15T05:12:11.639Z,20.70
2023-05-15T05:14:40.503Z,20.33
2023-05-15T05:17:07.778Z,20.33
2023-05-15T05:19:34.717Z,18.47
2023-05-15T05:22:04.787Z,18.87
2023-05-15T05:24:32.303Z,18.43
2023-05-15T05:26:59.269Z,17.17
2023-05-15T05:29:26.430Z,17.80
2023-05-15T05:31:53.737Z,18.70
2023-05-15T05:34:20.635Z,17.57
2023-05-15T05:36:47.646Z,18.53
2023-05-15T05:39:16.197Z,19.70
2023-05-15T05:41:43.533Z,18.70
2023-05-15T05:44:10.480Z,19.50
2023-05-15T05:46:37.502Z,19.00
2023-05-15T05:49:04.429Z,21.00
2023-05-15T05:51:32.051Z,21.73
2023-05-15T05:53:58.914Z,22.20
2023-05-15T05:56:26.746Z,23.00
2023-05-15T05:58:54.122Z,22.07
2023-05-15T06:01:21.376Z,23.03
2023-05-15T06:03:48.524Z,21.33
2023-05-15T06:06:15.505Z,21.53
2023-05-15T06:08:42.449Z,21.33
2023-05-15T06:11:09.300Z,21.60
2023-05-15T06:13:36.167Z,22.97
2023-05-15T06:16:03.065Z,21.93
2023-05-15T06:18:30.157Z,21.60
2023-05-15T06:21:00.673Z,23.07
2023-05-15T06:23:28.151Z,23.53
2023-05-15T06:25:55.002Z,22.07
2023-05-15T06:28:21.963Z,23.67
2023-05-15T06:30:48.803Z,23.23
2023-05-15T06:33:15.849Z,21.53
2023-05-15T06:35:42.754Z,22.53
2023-05-15T06:38:09.711Z,21.87
2023-05-15T06:40:36.632Z,21.00
2023-05-15T06:43:03.868Z,23.13
2023-05-15T06:45:31.466Z,22.63
2023-05-15T06:48:01.468Z,23.23
2023-05-15T06:50:28.751Z,22.67
2023-05-15T06:52:55.606Z,21.97
2023-05-15T06:55:22.463Z,22.07
2023-05-15T06:57:49.308Z,20.83
2023-05-15T07:00:16.668Z,20.97
2023-05-15T07:02:44.068Z,21.77
2023-05-15T07:05:11.583Z,21.07
2023-05-15T07:07:38.646Z,21.80
2023-05-15T07:10:07.068Z,21.00
2023-05-15T07:12:34.360Z,21.17
2023-05-15T07:15:01.272Z,19.93
2023-05-15T07:17:28.209Z,20.13
2023-05-15T07:19:55.105Z,20.23
2023-05-15T07:22:21.948Z,18.40
2023-05-15T07:24:48.849Z,19.37
2023-05-15T07:27:15.801Z,19.00
2023-05-15T07:29:42.592Z,19.20
2023-05-15T07:32:09.433Z,19.23
2023-05-15T07:34:36.322Z,18.20
2023-05-15T07:37:03.254Z,17.93
2023-05-15T07:39:30.187Z,21.03
2023-05-15T07:41:57.060Z,19.30
2023-05-15T07:44:23.917Z,17.50
2023-05-15T07:46:50.867Z,19.30
2023-05-15T07:49:17.806Z,17.90
2023-05-15T07:51:44.659Z,18.47
2023-05-15T07:54:11.638Z,17.77
2023-05-15T07:56:39.504Z,17.70
2023-05-15T07:59:06.401Z,16.80
2023-05-15T08:01:33.306Z,18.10
2023-05-15T08:04:00.549Z,17.17
2023-05-15T08:06:27.616Z,16.33
2023-05-15T08:08:54.552Z,16.73
2023-05-15T08:11:22.127Z,16.27
2023-05-15T08:13:49.191Z,16.13
2023-05-15T08:16:16.078Z,16.83
2023-05-15T08:18:42.978Z,14.50
2023-05-15T08:21:09.913Z,15.43
2023-05-15T08:23:36.881Z,16.83
2023-05-15T08:26:03.680Z,16.33
2023-05-15T08:28:30.634Z,15.57
2023-05-15T08:30:57.515Z,15.27
2023-05-15T08:33:24.321Z,17.10
2023-05-15T08:35:51.977Z,16.93
2023-05-15T08:38:18.812Z,14.80
2023-05-15T08:40:48.722Z,13.37
2023-05-15T08:43:17.957Z,14.70
2023-05-15T08:45:44.884Z,14.90
2023-05-15T08:48:16.235Z,15.83
2023-05-15T08:50:44.405Z,15.60
2023-05-15T08:53:14.426Z,14.90
2023-05-15T08:55:42.306Z,15.20
2023-05-15T08:58:09.674Z,15.07
2023-05-15T09:00:37.656Z,14.77
2023-05-15T09:03:05.544Z,14.87
2023-05-15T09:05:32.747Z,15.43
2023-05-15T09:08:03.197Z,14.70
2023-05-15T09:10:30.655Z,15.87
2023-05-15T09:12:59.413Z,15.70
2023-05-15T09:15:27.738Z,15.37
2023-05-15T09:17:54.944Z,15.23
2023-05-15T09:20:33.134Z,16.07
2023-05-15T09:23:02.155Z,14.73
2023-05-15T09:25:44.478Z,16.07
2023-05-15T09:28:34.019Z,15.67
2023-05-15T09:31:03.103Z,16.23
2023-05-15T09:33:35.331Z,17.00
2023-05-15T09:36:07.125Z,17.50
2023-05-15T09:38:35.432Z,16.60
2023-05-15T09:41:07.148Z,17.47
2023-05-15T09:43:35.570Z,16.57
2023-05-15T09:46:02.671Z,17.30
2023-05-15T09:48:30.734Z,17.77
2023-05-15T09:50:57.879Z,17.57
2023-05-15T09:53:25.611Z,18.20
2023-05-15T09:55:54.201Z,18.63
2023-05-15T09:58:21.092Z,18.23
2023-05-15T10:00:49.684Z,16.00
2023-05-15T10:03:19.948Z,18.10
2023-05-15T10:05:47.219Z,17.00
2023-05-15T10:08:15.673Z,17.93
2023-05-15T10:10:43.619Z,17.13
2023-05-15T10:13:11.955Z,16.17
2023-05-15T10:15:39.822Z,16.70
2023-05-15T10:18:07.882Z,16.23
2023-05-15T10:20:37.962Z,17.67
2023-05-15T10:23:08.441Z,16.10
2023-05-15T10:25:58.598Z,18.20
2023-05-15T10:28:26.934Z,16.90
2023-05-15T10:30:55.616Z,17.17
2023-05-15T10:33:23.060Z,17.07
2023-05-15T10:35:52.162Z,17.33
2023-05-15T10:38:20.525Z,17.13
2023-05-15T10:40:48.237Z,16.97
2023-05-15T10:43:15.693Z,16.67
2023-05-15T10:45:42.920Z,17.13
2023-05-15T10:48:12.435Z,17.17
2023-05-15T10:50:39.615Z,17.33
2023-05-15T10:53:06.592Z,16.73
2023-05-15T10:55:33.512Z,19.40
2023-05-15T10:58:00.495Z,17.13
2023-05-15T11:00:29.235Z,17.30
2023-05-15T11:02:57.428Z,18.67
2023-05-15T11:05:25.875Z,19.10
2023-05-15T11:08:25.928Z,20.83
2023-05-15T11:10:53.827Z,21.30
2023-05-15T11:13:21.396Z,22.10
2023-05-15T11:15:49.172Z,23.10
2023-05-15T11:18:16.243Z,22.67
2023-05-15T11:20:54.682Z,20.93
2023-05-15T11:23:22.891Z,20.97
2023-05-15T11:26:01.559Z,21.73
2023-05-15T11:28:30.703Z,21.13
2023-05-15T11:31:06.799Z,21.07
2023-05-15T11:33:33.948Z,20.80
2023-05-15T11:36:01.471Z,22.23
2023-05-15T11:38:28.396Z,21.37
2023-05-15T11:41:03.196Z,21.97
2023-05-15T11:43:37.103Z,22.57
2023-05-15T11:46:10.740Z,23.80
2023-05-15T11:48:40.454Z,23.63
2023-05-15T11:51:18.662Z,25.10
2023-05-15T11:53:46.053Z,25.00
2023-05-15T11:56:20.942Z,24.33
2023-05-15T11:58:52.851Z,24.20
2023-05-15T12:01:19.743Z,24.33
2023-05-15T12:03:50.295Z,26.00
2023-05-15T12:06:17.946Z,26.07
2023-05-15T12:08:50.293Z,26.27
2023-05-15T12:11:17.457Z,27.17
2023-05-15T12:13:44.322Z,27.97
2023-05-15T12:16:11.176Z,28.27
2023-05-15T12:18:38.432Z,28.73
2023-05-15T12:21:06.026Z,29.43
2023-05-15T12:23:33.070Z,31.70
2023-05-15T12:26:01.898Z,31.20
2023-05-15T12:28:30.268Z,31.20
2023-05-15T12:30:57.814Z,30.53
2023-05-15T12:33:25.238Z,32.03
2023-05-15T12:35:59.135Z,28.70
2023-05-15T12:38:28.033Z,29.87
2023-05-15T12:40:55.356Z,28.00
2023-05-15T12:43:25.692Z,28.60
2023-05-15T12:45:54.100Z,27.20
2023-05-15T12:48:21.890Z,26.93
2023-05-15T12:50:49.939Z,26.33
2023-05-15T12:53:17.399Z,26.00
2023-05-15T12:55:46.321Z,25.03
2023-05-15T12:58:15.303Z,25.57
2023-05-15T13:00:44.987Z,23.63
2023-05-15T13:03:13.913Z,24.73
2023-05-15T13:05:44.278Z,23.13
2023-05-15T13:08:16.458Z,23.53
2023-05-15T13:10:43.968Z,21.40
2023-05-15T13:13:10.790Z,19.40
2023-05-15T13:15:40.547Z,17.53
2023-05-15T13:18:10.149Z,17.40
2023-05-15T13:20:48.084Z,15.90
2023-05-15T13:23:18.042Z,14.40
2023-05-15T13:25:45.384Z,14.17
2023-05-15T13:28:13.093Z,14.77
2023-05-15T13:30:43.687Z,15.53
2023-05-15T13:33:12.486Z,14.27
2023-05-15T13:35:41.262Z,12.03
2023-05-15T13:38:11.060Z,10.63
2023-05-15T13:40:38.844Z,8.73
2023-05-15T13:43:08.453Z,8.97
2023-05-15T13:45:35.400Z,8.40
2023-05-15T13:48:02.653Z,8.50
2023-05-15T13:50:29.549Z,8.33
2023-05-15T13:52:56.625Z,6.77
2023-05-15T13:55:23.985Z,7.00
2023-05-15T13:57:51.564Z,6.83
2023-05-15T14:00:19.898Z,6.80
2023-05-15T14:02:47.275Z,6.73
2023-05-15T14:05:15.849Z,7.43
2023-05-15T14:07:43.034Z,8.77
2023-05-15T14:10:10.713Z,8.97
2023-05-15T14:12:38.322Z,7.50
2023-05-15T14:15:05.986Z,7.00
2023-05-15T14:17:32.917Z,5.93
2023-05-15T14:19:59.931Z,6.23
2023-05-15T14:22:26.782Z,6.33
2023-05-15T14:24:53.818Z,6.33
2023-05-15T14:27:21.054Z,5.67
2023-05-15T14:29:49.504Z,5.73
2023-05-15T14:32:17.025Z,5.13
2023-05-15T14:34:44.408Z,4.77
2023-05-15T14:37:11.375Z,5.03
2023-05-15T14:39:38.340Z,5.13
2023-05-15T14:42:06.493Z,4.43
2023-05-15T14:44:34.766Z,4.43
2023-05-15T14:47:16.888Z,4.63
2023-05-15T14:49:43.792Z,4.47
2023-05-15T14:52:12.304Z,4.40
2023-05-15T14:54:40.216Z,4.13
2023-05-15T14:57:07.816Z,4.33
2023-05-15T14:59:35.188Z,4.20
2023-05-15T15:02:02.360Z,3.97
2023-05-15T15:04:34.342Z,3.80
2023-05-15T15:07:04.484Z,3.87
2023-05-15T15:09:31.498Z,3.70
2023-05-15T15:11:58.422Z,3.77
2023-05-15T15:14:25.388Z,3.37
2023-05-15T15:16:52.338Z,4.00
2023-05-15T15:19:20.186Z,4.07
2023-05-15T15:21:47.560Z,4.73
2023-05-15T15:24:14.528Z,3.80
2023-05-15T15:26:41.490Z,3.50
2023-05-15T15:29:08.401Z,3.53
2023-05-15T15:31:35.512Z,3.27
2023-05-15T15:34:05.371Z,3.67
2023-05-15T15:36:32.816Z,4.20
2023-05-15T15:38:59.690Z,2.50
2023-05-15T15:41:26.552Z,2.57
2023-05-15T15:43:54.006Z,2.20
2023-05-15T15:46:21.104Z,2.67
2023-05-15T15:48:48.862Z,2.00
2023-05-15T15:51:16.303Z,2.00
2023-05-15T15:53:43.120Z,2.10
2023-05-15T15:56:10.000Z,2.00
2023-05-15T15:58:36.851Z,2.33
2023-05-15T16:01:03.954Z,2.40
2023-05-15T16:03:31.535Z,2.47
2023-05-15T16:06:00.158Z,2.40
2023-05-15T16:08:27.250Z,2.70
2023-05-15T16:10:55.077Z,2.37
2023-05-15T16:13:22.026Z,2.30
2023-05-15T16:15:48.909Z,2.53
2023-05-15T16:18:15.860Z,3.17
2023-05-15T16:20:42.703Z,2.90
2023-05-15T16:23:11.750Z,2.47
2023-05-15T16:25:38.642Z,2.50
2023-05-15T16:28:05.885Z,3.03
2023-05-15T16:30:47.513Z,2.57
2023-05-15T16:33:17.633Z,2.50
2023-05-15T16:35:44.789Z,3.23
2023-05-15T16:38:11.797Z,2.83
2023-05-15T16:40:39.144Z,2.80
2023-05-15T16:43:06.237Z,2.50
2023-05-15T16:45:33.033Z,2.80
2023-05-15T16:47:59.942Z,3.00
2023-05-15T16:50:27.097Z,2.77
2023-05-15T16:52:54.092Z,2.40
2023-05-15T16:55:21.010Z,2.43
2023-05-15T16:57:47.861Z,2.97
2023-05-15T17:00:16.027Z,2.57
2023-05-15T17:02:43.926Z,3.10
2023-05-15T17:05:11.519Z,4.30
2023-05-15T17:07:39.129Z,3.10
2023-05-15T17:10:07.850Z,3.00
2023-05-15T17:12:35.499Z,3.63
2023-05-15T17:15:02.971Z,3.20
2023-05-15T17:17:30.027Z,3.17
2023-05-15T17:19:57.679Z,3.20
2023-05-15T17:22:25.141Z,3.17
2023-05-15T17:24:52.373Z,3.53
2023-05-15T17:27:19.825Z,2.70
2023-05-15T17:29:47.162Z,2.33
2023-05-15T17:32:14.210Z,2.50
2023-05-15T17:34:41.325Z,2.77
2023-05-15T17:37:09.092Z,3.03
2023-05-15T17:39:35.951Z,2.80
2023-05-15T17:42:03.368Z,2.83
2023-05-15T17:44:31.277Z,2.57
2023-05-15T17:46:59.069Z,2.37
2023-05-15T17:49:26.515Z,2.60
2023-05-15T17:51:53.996Z,2.50
2023-05-15T17:54:20.938Z,2.77
2023-05-15T17:56:48.246Z,2.70
2023-05-15T17:59:15.184Z,2.60
2023-05-15T18:01:42.123Z,2.60
2023-05-15T18:04:09.252Z,2.77
2023-05-15T18:06:36.326Z,3.40
2023-05-15T18:09:03.467Z,5.50
2023-05-15T18:11:30.353Z,4.20
2023-05-15T18:13:57.387Z,3.70
2023-05-15T18:16:24.569Z,3.80
2023-05-15T18:18:52.176Z,4.50
2023-05-15T18:21:19.236Z,4.07
2023-05-15T18:23:46.126Z,4.73
2023-05-15T18:26:13.030Z,3.73
2023-05-15T18:28:39.929Z,4.07
2023-05-15T18:31:07.003Z,3.43
2023-05-15T18:33:34.854Z,3.67
2023-05-15T18:36:01.700Z,3.50
2023-05-15T18:38:29.048Z,4.03
2023-05-15T18:40:55.824Z,3.50
2023-05-15T18:43:22.777Z,3.70
2023-05-15T18:45:49.610Z,3.23
2023-05-15T18:48:16.559Z,2.97
2023-05-15T18:50:46.137Z,3.10
2023-05-15T18:53:13.100Z,2.97
2023-05-15T18:55:40.046Z,2.60
2023-05-15T18:58:07.023Z,2.63
2023-05-15T19:00:38.539Z,2.83
2023-05-15T19:03:06.712Z,2.93
2023-05-15T19:05:34.336Z,2.67
2023-05-15T19:08:01.900Z,2.57
2023-05-15T19:10:29.781Z,3.10
2023-05-15T19:12:57.405Z,3.13
2023-05-15T19:15:24.916Z,2.90
2023-05-15T19:17:52.121Z,2.80
2023-05-15T19:20:19.492Z,2.27
2023-05-15T19:22:46.495Z,2.40
2023-05-15T19:25:13.584Z,2.77
2023-05-15T19:27:40.450Z,3.20
2023-05-15T19:30:08.537Z,3.00
2023-05-15T19:32:35.653Z,2.67
2023-05-15T19:35:02.733Z,3.07
2023-05-15T19:37:29.698Z,2.63
2023-05-15T19:39:56.953Z,2.40
2023-05-15T19:42:23.943Z,2.67
2023-05-15T19:44:50.749Z,2.30
2023-05-15T19:47:17.660Z,2.33
2023-05-15T19:49:44.529Z,1.70
2023-05-15T19:52:11.357Z,2.13
2023-05-15T19:54:38.237Z,2.20
2023-05-15T19:57:05.305Z,1.90
2023-05-15T19:59:32.136Z,1.73
2023-05-15T20:01:59.047Z,1.40
2023-05-15T20:04:26.077Z,1.30
2023-05-15T20:06:53.293Z,1.50
2023-05-15T20:09:20.096Z,1.60
2023-05-15T20:11:47.106Z,1.40
2023-05-15T20:14:15.057Z,1.57
2023-05-15T20:16:41.949Z,1.33
2023-05-15T20:19:11.057Z,1.30
2023-05-15T20:21:38.783Z,1.50
2023-05-15T20:24:06.980Z,1.60
2023-05-15T20:26:35.983Z,1.20
2023-05-15T20:29:03.599Z,1.53
2023-05-15T20:31:30.578Z,1.40
2023-05-15T20:33:57.566Z,1.07
2023-05-15T20:36:25.654Z,1.30
2023-05-15T20:38:52.916Z,1.50
2023-05-15T20:41:22.276Z,1.27
2023-05-15T20:43:49.957Z,1.30
2023-05-15T20:46:17.142Z,1.60
2023-05-15T20:48:44.149Z,1.40
2023-05-15T20:51:11.024Z,1.37
2023-05-15T20:53:37.823Z,1.60
2023-05-15T20:56:04.808Z,1.90
2023-05-15T20:58:31.679Z,1.47
2023-05-15T21:01:01.052Z,1.60
2023-05-15T21:03:29.346Z,1.73
2023-05-15T21:05:57.824Z,1.50
2023-05-15T21:08:24.827Z,1.53
2023-05-15T21:10:54.002Z,2.00
2023-05-15T21:13:21.107Z,1.90
2023-05-15T21:15:47.973Z,2.33
2023-05-15T21:18:14.972Z,2.23
2023-05-15T21:20:42.346Z,1.80
2023-05-15T21:23:09.343Z,2.30
2023-05-15T21:25:37.816Z,1.83
2023-05-15T21:28:05.148Z,1.80
2023-05-15T21:30:32.083Z,1.63
2023-05-15T21:32:59.193Z,1.73
2023-05-15T21:35:28.825Z,1.87
2023-05-15T21:37:55.954Z,2.17
2023-05-15T21:40:22.956Z,2.10
2023-05-15T21:42:49.942Z,2.00
2023-05-15T21:45:17.421Z,1.90
2023-05-15T21:47:44.437Z,1.90
2023-05-15T21:50:11.561Z,1.60
2023-05-15T21:52:38.430Z,1.90
2023-05-15T21:55:05.825Z,2.60
2023-05-15T21:57:32.662Z,2.03
2023-05-15T21:59:59.698Z,2.27
2023-05-15T22:02:26.577Z,2.17
2023-05-15T22:04:53.497Z,1.97
2023-05-15T22:07:20.750Z,2.40
2023-05-15T22:09:47.601Z,2.10
2023-05-15T22:12:14.477Z,2.07
2023-05-15T22:14:54.498Z,2.57
2023-05-15T22:17:27.269Z,2.23
2023-05-15T22:19:54.292Z,2.40
2023-05-15T22:22:21.384Z,2.57
2023-05-15T22:24:48.363Z,2.73
2023-05-15T22:27:16.763Z,2.73
2023-05-15T22:29:43.763Z,2.77
2023-05-15T22:32:10.840Z,2.27
2023-05-15T22:34:37.656Z,2.53
2023-05-15T22:37:04.661Z,3.10
2023-05-15T22:39:31.831Z,2.50
2023-05-15T22:41:58.644Z,2.60
2023-05-15T22:44:25.468Z,3.10
2023-05-15T22:46:52.417Z,2.40
2023-05-15T22:49:23.672Z,4.00
2023-05-15T22:51:50.853Z,2.43
2023-05-15T22:54:24.153Z,2.93
2023-05-15T22:56:51.889Z,3.03
2023-05-15T22:59:18.921Z,2.97
2023-05-15T23:01:46.484Z,2.20
2023-05-15T23:04:13.821Z,2.03
2023-05-15T23:06:41.155Z,2.10
2023-05-15T23:09:08.606Z,2.10
2023-05-15T23:11:35.913Z,2.50
2023-05-15T23:14:03.603Z,2.30
2023-05-15T23:16:31.048Z,2.50
2023-05-15T23:18:58.150Z,2.13
2023-05-15T23:21:25.421Z,1.93
2023-05-15T23:23:52.277Z,2.27
2023-05-15T23:26:19.109Z,1.90
2023-05-15T23:28:46.240Z,2.27
2023-05-15T23:31:14.093Z,3.07
2023-05-15T23:33:41.437Z,2.40
2023-05-15T23:36:08.777Z,2.70
2023-05-15T23:38:35.694Z,2.50
2023-05-15T23:41:02.598Z,2.57
2023-05-15T23:43:29.732Z,2.10
2023-05-15T23:45:56.700Z,2.37
2023-05-15T23:48:23.736Z,2.60
2023-05-15T23:50:52.355Z,2.53
2023-05-15T23:53:19.338Z,2.07
2023-05-15T23:55:46.199Z,2.30
2023-05-15T23:58:13.062Z,2.80
